sensor_id;sensor_type;location;lat;lon;timestamp;P1;durP1;ratioP1;P2;durP2;ratioP2
49123;SDS011;48506;48.202;16.274;2022-12-18T00:02:00;12.23;;;5.53;;
49123;SDS011;48506;48.202;16.274;2022-12-18T00:04:27;13.07;;;5.88;;
49123;SDS011;48506;48.202;16.274;2022-12-18T00:06:53;9.60;;;5.28;;
49123;SDS011;48506;48.202;16.274;2022-12-18T00:09:19;9.93;;;5.07;;
49123;SDS011;48506;48.202;16.274;2022-12-18T00:11:45;13.80;;;6.55;;
49123;SDS011;48506;48.202;16.274;2022-12-18T00:14:12;10.40;;;6.35;;
49123;SDS011;48506;48.202;16.274;2022-12-18T00:16:42;9.65;;;5.13;;
49123;SDS011;48506;48.202;16.274;2022-12-18T00:19:09;10.45;;;5.65;;
49123;SDS011;48506;48.202;16.274;2022-12-18T00:21:36;11.10;;;5.72;;
49123;SDS011;48506;48.202;16.274;2022-12-18T00:24:05;10.32;;;5.47;;
49123;SDS011;48506;48.202;16.274;2022-12-18T00:26:32;13.35;;;5.68;;
49123;SDS011;48506;48.202;16.274;2022-12-18T00:29:02;10.25;;;6.07;;
49123;SDS011;48506;48.202;16.274;2022-12-18T00:31:30;8.55;;;5.03;;
49123;SDS011;48506;48.202;16.274;2022-12-18T00:33:57;12.10;;;6.65;;
49123;SDS011;48506;48.202;16.274;2022-12-18T00:36:24;11.60;;;5.88;;
49123;SDS011;48506;48.202;16.274;2022-12-18T00:38:53;17.20;;;6.18;;
49123;SDS011;48506;48.202;16.274;2022-12-18T00:41:20;11.20;;;7.50;;
49123;SDS011;48506;48.202;16.274;2022-12-18T00:44:06;13.43;;;6.03;;
49123;SDS011;48506;48.202;16.274;2022-12-18T00:46:34;12.45;;;7.32;;
49123;SDS011;48506;48.202;16.274;2022-12-18T00:49:00;15.80;;;6.55;;
49123;SDS011;48506;48.202;16.274;2022-12-18T00:51:27;12.75;;;5.88;;
49123;SDS011;48506;48.202;16.274;2022-12-18T00:53:53;16.92;;;7.88;;
49123;SDS011;48506;48.202;16.274;2022-12-18T00:56:22;17.25;;;6.35;;
49123;SDS011;48506;48.202;16.274;2022-12-18T00:58:48;10.10;;;6.85;;
49123;SDS011;48506;48.202;16.274;2022-12-18T01:01:15;13.98;;;7.47;;
49123;SDS011;48506;48.202;16.274;2022-12-18T01:03:40;14.77;;;6.65;;
49123;SDS011;48506;48.202;16.274;2022-12-18T01:06:07;9.27;;;4.70;;
49123;SDS011;48506;48.202;16.274;2022-12-18T01:08:34;13.85;;;5.85;;
49123;SDS011;48506;48.202;16.274;2022-12-18T01:11:01;9.07;;;5.35;;
49123;SDS011;48506;48.202;16.274;2022-12-18T01:13:37;10.35;;;5.68;;
49123;SDS011;48506;48.202;16.274;2022-12-18T01:16:04;10.70;;;5.97;;
49123;SDS011;48506;48.202;16.274;2022-12-18T01:18:31;11.43;;;5.00;;
49123;SDS011;48506;48.202;16.274;2022-12-18T01:20:57;12.95;;;5.93;;
49123;SDS011;48506;48.202;16.274;2022-12-18T01:23:22;12.05;;;7.07;;
49123;SDS011;48506;48.202;16.274;2022-12-18T01:25:48;9.07;;;4.88;;
49123;SDS011;48506;48.202;16.274;2022-12-18T01:28:14;12.68;;;6.45;;
49123;SDS011;48506;48.202;16.274;2022-12-18T01:30:40;8.13;;;4.53;;
49123;SDS011;48506;48.202;16.274;2022-12-18T01:33:06;8.30;;;4.55;;
49123;SDS011;48506;48.202;16.274;2022-12-18T01:35:32;9.85;;;4.85;;
49123;SDS011;48506;48.202;16.274;2022-12-18T01:37:57;10.07;;;5.45;;
49123;SDS011;48506;48.202;16.274;2022-12-18T01:40:23;11.27;;;5.38;;
49123;SDS011;48506;48.202;16.274;2022-12-18T01:42:52;15.27;;;6.45;;
49123;SDS011;48506;48.202;16.274;2022-12-18T01:47:56;11.63;;;6.28;;
49123;SDS011;48506;48.202;16.274;2022-12-18T01:50:32;9.85;;;5.53;;
49123;SDS011;48506;48.202;16.274;2022-12-18T01:53:07;12.27;;;6.13;;
49123;SDS011;48506;48.202;16.274;2022-12-18T01:55:40;10.85;;;5.93;;
49123;SDS011;48506;48.202;16.274;2022-12-18T01:58:11;12.15;;;5.35;;
49123;SDS011;48506;48.202;16.274;2022-12-18T02:00:37;13.65;;;5.40;;
49123;SDS011;48506;48.202;16.274;2022-12-18T02:03:03;11.52;;;6.20;;
49123;SDS011;48506;48.202;16.274;2022-12-18T02:08:29;11.02;;;6.40;;
49123;SDS011;48506;48.202;16.274;2022-12-18T02:11:10;12.32;;;6.05;;
49123;SDS011;48506;48.202;16.274;2022-12-18T02:14:04;12.93;;;5.93;;
49123;SDS011;48506;48.202;16.274;2022-12-18T02:27:40;19.77;;;7.68;;
49123;SDS011;48506;48.202;16.274;2022-12-18T02:32:39;14.52;;;7.28;;
49123;SDS011;48506;48.202;16.274;2022-12-18T02:35:12;13.15;;;6.68;;
49123;SDS011;48506;48.202;16.274;2022-12-18T02:37:41;18.08;;;7.72;;
49123;SDS011;48506;48.202;16.274;2022-12-18T02:40:10;17.23;;;7.10;;
49123;SDS011;48506;48.202;16.274;2022-12-18T02:42:37;22.38;;;8.68;;
49123;SDS011;48506;48.202;16.274;2022-12-18T02:45:03;20.48;;;8.90;;
49123;SDS011;48506;48.202;16.274;2022-12-18T02:47:31;19.58;;;8.10;;
49123;SDS011;48506;48.202;16.274;2022-12-18T02:55:45;21.55;;;8.68;;
49123;SDS011;48506;48.202;16.274;2022-12-18T03:04:37;16.63;;;7.45;;
49123;SDS011;48506;48.202;16.274;2022-12-18T03:07:15;13.10;;;6.47;;
49123;SDS011;48506;48.202;16.274;2022-12-18T03:09:51;18.13;;;9.55;;
49123;SDS011;48506;48.202;16.274;2022-12-18T03:17:33;14.95;;;7.63;;
49123;SDS011;48506;48.202;16.274;2022-12-18T03:20:07;22.92;;;7.88;;
49123;SDS011;48506;48.202;16.274;2022-12-18T03:22:37;18.70;;;8.45;;
49123;SDS011;48506;48.202;16.274;2022-12-18T03:25:07;17.45;;;8.02;;
49123;SDS011;48506;48.202;16.274;2022-12-18T03:27:38;16.95;;;8.80;;
49123;SDS011;48506;48.202;16.274;2022-12-18T03:30:10;19.20;;;7.60;;
49123;SDS011;48506;48.202;16.274;2022-12-18T03:32:40;18.08;;;9.48;;
49123;SDS011;48506;48.202;16.274;2022-12-18T03:35:10;14.60;;;7.68;;
49123;SDS011;48506;48.202;16.274;2022-12-18T03:37:39;19.58;;;8.05;;
49123;SDS011;48506;48.202;16.274;2022-12-18T03:40:05;23.10;;;10.15;;
49123;SDS011;48506;48.202;16.274;2022-12-18T03:42:51;16.02;;;8.10;;
49123;SDS011;48506;48.202;16.274;2022-12-18T03:45:41;12.80;;;7.82;;
49123;SDS011;48506;48.202;16.274;2022-12-18T03:48:28;18.48;;;9.63;;
49123;SDS011;48506;48.202;16.274;2022-12-18T03:50:59;16.35;;;7.70;;
49123;SDS011;48506;48.202;16.274;2022-12-18T03:53:41;18.63;;;8.30;;
49123;SDS011;48506;48.202;16.274;2022-12-18T03:56:15;15.20;;;7.68;;
49123;SDS011;48506;48.202;16.274;2022-12-18T03:58:43;17.40;;;7.75;;
49123;SDS011;48506;48.202;16.274;2022-12-18T04:01:12;15.43;;;7.25;;
49123;SDS011;48506;48.202;16.274;2022-12-18T04:03:40;19.27;;;8.68;;
49123;SDS011;48506;48.202;16.274;2022-12-18T04:06:07;19.70;;;8.45;;
49123;SDS011;48506;48.202;16.274;2022-12-18T04:08:35;19.27;;;8.63;;
49123;SDS011;48506;48.202;16.274;2022-12-18T04:11:01;18.20;;;7.60;;
49123;SDS011;48506;48.202;16.274;2022-12-18T04:13:28;15.98;;;7.90;;
49123;SDS011;48506;48.202;16.274;2022-12-18T04:15:57;25.35;;;9.90;;
49123;SDS011;48506;48.202;16.274;2022-12-18T04:18:23;22.70;;;11.25;;
49123;SDS011;48506;48.202;16.274;2022-12-18T04:20:49;20.15;;;9.27;;
49123;SDS011;48506;48.202;16.274;2022-12-18T04:23:15;24.70;;;10.07;;
49123;SDS011;48506;48.202;16.274;2022-12-18T04:25:40;19.25;;;8.73;;
49123;SDS011;48506;48.202;16.274;2022-12-18T04:28:06;20.10;;;9.77;;
49123;SDS011;48506;48.202;16.274;2022-12-18T04:30:32;21.60;;;9.68;;
49123;SDS011;48506;48.202;16.274;2022-12-18T04:32:58;17.42;;;8.43;;
49123;SDS011;48506;48.202;16.274;2022-12-18T04:35:24;22.60;;;9.48;;
49123;SDS011;48506;48.202;16.274;2022-12-18T04:37:50;21.58;;;9.93;;
49123;SDS011;48506;48.202;16.274;2022-12-18T04:40:16;19.75;;;8.93;;
49123;SDS011;48506;48.202;16.274;2022-12-18T04:42:42;19.40;;;8.18;;
49123;SDS011;48506;48.202;16.274;2022-12-18T04:45:08;21.98;;;9.40;;
49123;SDS011;48506;48.202;16.274;2022-12-18T04:47:34;27.52;;;8.98;;
49123;SDS011;48506;48.202;16.274;2022-12-18T04:50:00;21.77;;;10.23;;
49123;SDS011;48506;48.202;16.274;2022-12-18T04:52:26;25.52;;;8.68;;
49123;SDS011;48506;48.202;16.274;2022-12-18T04:54:52;19.10;;;9.38;;
49123;SDS011;48506;48.202;16.274;2022-12-18T04:57:18;27.73;;;9.80;;
49123;SDS011;48506;48.202;16.274;2022-12-18T04:59:44;26.75;;;10.10;;
49123;SDS011;48506;48.202;16.274;2022-12-18T05:02:10;21.70;;;9.23;;
49123;SDS011;48506;48.202;16.274;2022-12-18T05:04:36;23.10;;;11.63;;
49123;SDS011;48506;48.202;16.274;2022-12-18T05:07:02;20.90;;;9.60;;
49123;SDS011;48506;48.202;16.274;2022-12-18T05:09:28;25.63;;;10.90;;
49123;SDS011;48506;48.202;16.274;2022-12-18T05:11:54;21.85;;;9.20;;
49123;SDS011;48506;48.202;16.274;2022-12-18T05:14:19;19.02;;;9.02;;
49123;SDS011;48506;48.202;16.274;2022-12-18T05:16:45;20.02;;;8.02;;
49123;SDS011;48506;48.202;16.274;2022-12-18T05:19:11;20.27;;;8.85;;
49123;SDS011;48506;48.202;16.274;2022-12-18T05:21:37;20.95;;;8.93;;
49123;SDS011;48506;48.202;16.274;2022-12-18T05:24:04;24.75;;;9.85;;
49123;SDS011;48506;48.202;16.274;2022-12-18T05:26:30;22.38;;;8.95;;
49123;SDS011;48506;48.202;16.274;2022-12-18T05:28:56;19.90;;;9.90;;
49123;SDS011;48506;48.202;16.274;2022-12-18T05:31:22;20.63;;;11.32;;
49123;SDS011;48506;48.202;16.274;2022-12-18T05:33:48;22.45;;;9.55;;
49123;SDS011;48506;48.202;16.274;2022-12-18T05:36:14;21.70;;;9.77;;
49123;SDS011;48506;48.202;16.274;2022-12-18T05:38:40;22.15;;;9.48;;
49123;SDS011;48506;48.202;16.274;2022-12-18T05:41:06;26.77;;;11.05;;
49123;SDS011;48506;48.202;16.274;2022-12-18T05:43:34;24.33;;;9.38;;
49123;SDS011;48506;48.202;16.274;2022-12-18T05:46:05;20.45;;;9.15;;
49123;SDS011;48506;48.202;16.274;2022-12-18T05:48:37;18.83;;;8.88;;
49123;SDS011;48506;48.202;16.274;2022-12-18T05:51:04;22.88;;;10.48;;
49123;SDS011;48506;48.202;16.274;2022-12-18T05:53:32;22.52;;;9.65;;
49123;SDS011;48506;48.202;16.274;2022-12-18T05:56:02;19.02;;;8.90;;
49123;SDS011;48506;48.202;16.274;2022-12-18T05:58:29;28.35;;;11.18;;
49123;SDS011;48506;48.202;16.274;2022-12-18T06:00:56;31.90;;;11.38;;
49123;SDS011;48506;48.202;16.274;2022-12-18T06:03:23;20.50;;;9.15;;
49123;SDS011;48506;48.202;16.274;2022-12-18T06:05:49;21.70;;;9.13;;
49123;SDS011;48506;48.202;16.274;2022-12-18T06:08:15;28.52;;;10.07;;
49123;SDS011;48506;48.202;16.274;2022-12-18T06:10:41;23.20;;;10.27;;
49123;SDS011;48506;48.202;16.274;2022-12-18T06:13:07;26.13;;;9.93;;
49123;SDS011;48506;48.202;16.274;2022-12-18T06:15:36;21.92;;;9.27;;
49123;SDS011;48506;48.202;16.274;2022-12-18T06:18:02;25.70;;;8.77;;
49123;SDS011;48506;48.202;16.274;2022-12-18T06:20:29;25.42;;;10.52;;
49123;SDS011;48506;48.202;16.274;2022-12-18T06:22:54;27.15;;;10.27;;
49123;SDS011;48506;48.202;16.274;2022-12-18T06:25:23;22.80;;;9.60;;
49123;SDS011;48506;48.202;16.274;2022-12-18T06:27:49;24.20;;;9.50;;
49123;SDS011;48506;48.202;16.274;2022-12-18T06:30:15;25.85;;;9.90;;
49123;SDS011;48506;48.202;16.274;2022-12-18T06:32:41;30.15;;;11.63;;
49123;SDS011;48506;48.202;16.274;2022-12-18T06:35:07;25.23;;;11.00;;
49123;SDS011;48506;48.202;16.274;2022-12-18T06:37:33;24.27;;;11.40;;
49123;SDS011;48506;48.202;16.274;2022-12-18T06:39:59;30.70;;;13.27;;
49123;SDS011;48506;48.202;16.274;2022-12-18T06:42:26;29.80;;;11.98;;
49123;SDS011;48506;48.202;16.274;2022-12-18T06:44:53;27.83;;;11.70;;
49123;SDS011;48506;48.202;16.274;2022-12-18T06:47:19;33.35;;;13.60;;
49123;SDS011;48506;48.202;16.274;2022-12-18T06:49:45;33.70;;;12.55;;
49123;SDS011;48506;48.202;16.274;2022-12-18T06:52:11;29.02;;;12.13;;
49123;SDS011;48506;48.202;16.274;2022-12-18T06:54:37;32.55;;;13.38;;
49123;SDS011;48506;48.202;16.274;2022-12-18T06:57:03;30.52;;;13.93;;
49123;SDS011;48506;48.202;16.274;2022-12-18T06:59:28;25.65;;;11.55;;
49123;SDS011;48506;48.202;16.274;2022-12-18T07:01:57;29.67;;;12.13;;
49123;SDS011;48506;48.202;16.274;2022-12-18T07:04:29;35.63;;;13.68;;
49123;SDS011;48506;48.202;16.274;2022-12-18T07:06:55;28.58;;;11.10;;
49123;SDS011;48506;48.202;16.274;2022-12-18T07:09:22;33.10;;;12.65;;
49123;SDS011;48506;48.202;16.274;2022-12-18T07:11:50;30.75;;;13.20;;
49123;SDS011;48506;48.202;16.274;2022-12-18T07:14:16;28.60;;;13.25;;
49123;SDS011;48506;48.202;16.274;2022-12-18T07:16:41;28.15;;;11.13;;
49123;SDS011;48506;48.202;16.274;2022-12-18T07:19:07;33.92;;;12.43;;
49123;SDS011;48506;48.202;16.274;2022-12-18T07:21:33;31.73;;;12.77;;
49123;SDS011;48506;48.202;16.274;2022-12-18T07:23:59;34.95;;;13.88;;
49123;SDS011;48506;48.202;16.274;2022-12-18T07:26:25;29.45;;;12.27;;
49123;SDS011;48506;48.202;16.274;2022-12-18T07:28:54;34.40;;;13.82;;
49123;SDS011;48506;48.202;16.274;2022-12-18T07:31:23;28.08;;;11.93;;
49123;SDS011;48506;48.202;16.274;2022-12-18T07:33:50;22.38;;;11.30;;
49123;SDS011;48506;48.202;16.274;2022-12-18T07:36:16;26.67;;;12.85;;
49123;SDS011;48506;48.202;16.274;2022-12-18T07:38:43;24.65;;;10.38;;
49123;SDS011;48506;48.202;16.274;2022-12-18T07:41:12;27.17;;;11.77;;
49123;SDS011;48506;48.202;16.274;2022-12-18T07:43:39;26.98;;;10.95;;
49123;SDS011;48506;48.202;16.274;2022-12-18T07:46:06;27.13;;;11.73;;
49123;SDS011;48506;48.202;16.274;2022-12-18T07:48:34;29.08;;;11.55;;
49123;SDS011;48506;48.202;16.274;2022-12-18T07:51:03;25.02;;;13.32;;
49123;SDS011;48506;48.202;16.274;2022-12-18T07:53:32;27.83;;;13.57;;
49123;SDS011;48506;48.202;16.274;2022-12-18T07:55:59;28.42;;;12.88;;
49123;SDS011;48506;48.202;16.274;2022-12-18T07:58:28;28.08;;;12.75;;
49123;SDS011;48506;48.202;16.274;2022-12-18T08:00:54;30.90;;;12.15;;
49123;SDS011;48506;48.202;16.274;2022-12-18T08:03:28;29.15;;;12.02;;
49123;SDS011;48506;48.202;16.274;2022-12-18T08:05:57;36.08;;;13.63;;
49123;SDS011;48506;48.202;16.274;2022-12-18T08:08:28;30.70;;;11.18;;
49123;SDS011;48506;48.202;16.274;2022-12-18T08:10:54;32.90;;;13.02;;
49123;SDS011;48506;48.202;16.274;2022-12-18T08:13:21;32.58;;;13.35;;
49123;SDS011;48506;48.202;16.274;2022-12-18T08:16:03;33.63;;;12.20;;
49123;SDS011;48506;48.202;16.274;2022-12-18T08:18:32;27.58;;;12.25;;
49123;SDS011;48506;48.202;16.274;2022-12-18T08:21:06;31.30;;;13.05;;
49123;SDS011;48506;48.202;16.274;2022-12-18T08:23:37;29.02;;;12.93;;
49123;SDS011;48506;48.202;16.274;2022-12-18T08:26:03;29.95;;;11.85;;
49123;SDS011;48506;48.202;16.274;2022-12-18T08:28:29;34.58;;;14.43;;
49123;SDS011;48506;48.202;16.274;2022-12-18T08:30:55;28.30;;;13.00;;
49123;SDS011;48506;48.202;16.274;2022-12-18T08:33:21;31.35;;;14.15;;
49123;SDS011;48506;48.202;16.274;2022-12-18T08:35:47;25.08;;;12.90;;
49123;SDS011;48506;48.202;16.274;2022-12-18T08:38:13;24.17;;;13.20;;
49123;SDS011;48506;48.202;16.274;2022-12-18T08:40:39;29.05;;;13.45;;
49123;SDS011;48506;48.202;16.274;2022-12-18T08:43:05;38.38;;;15.45;;
49123;SDS011;48506;48.202;16.274;2022-12-18T08:45:49;30.30;;;12.57;;
49123;SDS011;48506;48.202;16.274;2022-12-18T08:48:15;32.13;;;13.73;;
49123;SDS011;48506;48.202;16.274;2022-12-18T08:50:41;30.75;;;13.70;;
49123;SDS011;48506;48.202;16.274;2022-12-18T08:53:06;28.80;;;14.05;;
49123;SDS011;48506;48.202;16.274;2022-12-18T08:55:32;29.10;;;13.15;;
49123;SDS011;48506;48.202;16.274;2022-12-18T08:57:58;30.70;;;13.88;;
49123;SDS011;48506;48.202;16.274;2022-12-18T09:00:24;29.58;;;13.40;;
49123;SDS011;48506;48.202;16.274;2022-12-18T09:02:50;41.03;;;13.95;;
49123;SDS011;48506;48.202;16.274;2022-12-18T09:05:16;30.83;;;13.23;;
49123;SDS011;48506;48.202;16.274;2022-12-18T09:07:42;31.27;;;15.90;;
49123;SDS011;48506;48.202;16.274;2022-12-18T09:10:08;24.10;;;12.88;;
49123;SDS011;48506;48.202;16.274;2022-12-18T09:12:34;27.23;;;13.65;;
49123;SDS011;48506;48.202;16.274;2022-12-18T09:15:00;33.78;;;16.02;;
49123;SDS011;48506;48.202;16.274;2022-12-18T09:17:26;32.08;;;15.85;;
49123;SDS011;48506;48.202;16.274;2022-12-18T09:19:52;32.90;;;15.48;;
49123;SDS011;48506;48.202;16.274;2022-12-18T09:22:18;28.70;;;14.38;;
49123;SDS011;48506;48.202;16.274;2022-12-18T09:24:44;37.53;;;17.38;;
49123;SDS011;48506;48.202;16.274;2022-12-18T09:27:10;37.47;;;15.60;;
49123;SDS011;48506;48.202;16.274;2022-12-18T09:29:36;38.65;;;17.98;;
49123;SDS011;48506;48.202;16.274;2022-12-18T09:32:02;39.38;;;18.45;;
49123;SDS011;48506;48.202;16.274;2022-12-18T09:34:28;47.10;;;18.48;;
49123;SDS011;48506;48.202;16.274;2022-12-18T09:36:54;39.05;;;17.00;;
49123;SDS011;48506;48.202;16.274;2022-12-18T09:39:20;45.60;;;20.23;;
49123;SDS011;48506;48.202;16.274;2022-12-18T09:41:47;48.97;;;20.75;;
49123;SDS011;48506;48.202;16.274;2022-12-18T09:44:22;51.03;;;21.63;;
49123;SDS011;48506;48.202;16.274;2022-12-18T09:47:00;54.08;;;19.58;;
49123;SDS011;48506;48.202;16.274;2022-12-18T09:49:43;41.55;;;18.58;;
49123;SDS011;48506;48.202;16.274;2022-12-18T09:54:39;46.35;;;20.35;;
49123;SDS011;48506;48.202;16.274;2022-12-18T09:57:15;43.53;;;20.17;;
49123;SDS011;48506;48.202;16.274;2022-12-18T09:59:50;45.70;;;20.52;;
49123;SDS011;48506;48.202;16.274;2022-12-18T10:02:22;43.60;;;18.98;;
49123;SDS011;48506;48.202;16.274;2022-12-18T10:05:02;39.10;;;18.75;;
49123;SDS011;48506;48.202;16.274;2022-12-18T10:07:34;41.10;;;17.98;;
49123;SDS011;48506;48.202;16.274;2022-12-18T10:13:00;45.70;;;19.23;;
49123;SDS011;48506;48.202;16.274;2022-12-18T10:15:36;45.42;;;20.10;;
49123;SDS011;48506;48.202;16.274;2022-12-18T10:18:23;39.67;;;20.40;;
49123;SDS011;48506;48.202;16.274;2022-12-18T10:21:10;41.38;;;18.10;;
49123;SDS011;48506;48.202;16.274;2022-12-18T10:26:46;52.72;;;20.42;;
49123;SDS011;48506;48.202;16.274;2022-12-18T10:29:13;45.67;;;19.67;;
49123;SDS011;48506;48.202;16.274;2022-12-18T10:31:41;42.40;;;19.25;;
49123;SDS011;48506;48.202;16.274;2022-12-18T10:34:10;38.72;;;16.67;;
49123;SDS011;48506;48.202;16.274;2022-12-18T10:36:44;41.65;;;18.27;;
49123;SDS011;48506;48.202;16.274;2022-12-18T10:41:41;39.60;;;17.48;;
49123;SDS011;48506;48.202;16.274;2022-12-18T10:44:22;43.35;;;16.98;;
49123;SDS011;48506;48.202;16.274;2022-12-18T10:47:02;39.22;;;18.13;;
49123;SDS011;48506;48.202;16.274;2022-12-18T10:49:31;43.88;;;18.58;;
49123;SDS011;48506;48.202;16.274;2022-12-18T10:52:06;43.40;;;17.50;;
49123;SDS011;48506;48.202;16.274;2022-12-18T10:54:54;46.40;;;18.33;;
49123;SDS011;48506;48.202;16.274;2022-12-18T10:59:58;48.78;;;19.00;;
49123;SDS011;48506;48.202;16.274;2022-12-18T11:02:28;48.67;;;19.30;;
49123;SDS011;48506;48.202;16.274;2022-12-18T11:05:01;40.42;;;17.70;;
49123;SDS011;48506;48.202;16.274;2022-12-18T11:10:32;36.90;;;18.50;;
49123;SDS011;48506;48.202;16.274;2022-12-18T11:13:11;43.80;;;18.80;;
49123;SDS011;48506;48.202;16.274;2022-12-18T11:15:47;40.08;;;18.13;;
49123;SDS011;48506;48.202;16.274;2022-12-18T11:18:17;38.67;;;16.40;;
49123;SDS011;48506;48.202;16.274;2022-12-18T11:21:09;38.65;;;15.60;;
49123;SDS011;48506;48.202;16.274;2022-12-18T11:23:36;40.90;;;17.05;;
49123;SDS011;48506;48.202;16.274;2022-12-18T11:26:10;44.83;;;17.55;;
49123;SDS011;48506;48.202;16.274;2022-12-18T11:28:40;45.42;;;18.20;;
49123;SDS011;48506;48.202;16.274;2022-12-18T11:34:02;46.88;;;19.98;;
49123;SDS011;48506;48.202;16.274;2022-12-18T11:39:09;39.10;;;17.05;;
49123;SDS011;48506;48.202;16.274;2022-12-18T11:41:48;35.58;;;16.70;;
49123;SDS011;48506;48.202;16.274;2022-12-18T11:44:54;43.17;;;16.98;;
49123;SDS011;48506;48.202;16.274;2022-12-18T11:47:38;38.47;;;16.15;;
49123;SDS011;48506;48.202;16.274;2022-12-18T11:50:33;46.05;;;19.23;;
49123;SDS011;48506;48.202;16.274;2022-12-18T11:53:16;43.33;;;18.88;;
49123;SDS011;48506;48.202;16.274;2022-12-18T12:15:50;39.67;;;16.85;;
49123;SDS011;48506;48.202;16.274;2022-12-18T12:18:46;36.95;;;15.57;;
49123;SDS011;48506;48.202;16.274;2022-12-18T12:21:28;30.53;;;12.33;;
49123;SDS011;48506;48.202;16.274;2022-12-18T12:40:02;47.13;;;19.95;;
49123;SDS011;48506;48.202;16.274;2022-12-18T12:42:35;44.08;;;19.95;;
49123;SDS011;48506;48.202;16.274;2022-12-18T12:45:29;37.15;;;19.02;;
49123;SDS011;48506;48.202;16.274;2022-12-18T12:48:04;37.80;;;16.42;;
49123;SDS011;48506;48.202;16.274;2022-12-18T12:50:36;45.72;;;15.70;;
49123;SDS011;48506;48.202;16.274;2022-12-18T12:53:06;37.25;;;16.52;;
49123;SDS011;48506;48.202;16.274;2022-12-18T12:55:36;48.17;;;17.45;;
49123;SDS011;48506;48.202;16.274;2022-12-18T13:00:40;44.92;;;18.23;;
49123;SDS011;48506;48.202;16.274;2022-12-18T13:03:41;44.83;;;17.05;;
49123;SDS011;48506;48.202;16.274;2022-12-18T13:09:06;44.03;;;18.88;;
49123;SDS011;48506;48.202;16.274;2022-12-18T13:14:34;45.85;;;19.17;;
49123;SDS011;48506;48.202;16.274;2022-12-18T13:20:02;43.00;;;18.67;;
49123;SDS011;48506;48.202;16.274;2022-12-18T13:22:37;45.80;;;18.27;;
49123;SDS011;48506;48.202;16.274;2022-12-18T13:28:18;46.08;;;18.58;;
49123;SDS011;48506;48.202;16.274;2022-12-18T13:30:47;36.97;;;16.33;;
49123;SDS011;48506;48.202;16.274;2022-12-18T13:46:02;46.67;;;18.42;;
49123;SDS011;48506;48.202;16.274;2022-12-18T13:48:56;48.25;;;20.98;;
49123;SDS011;48506;48.202;16.274;2022-12-18T13:51:32;50.65;;;21.02;;
49123;SDS011;48506;48.202;16.274;2022-12-18T13:54:01;43.72;;;21.95;;
49123;SDS011;48506;48.202;16.274;2022-12-18T13:56:43;49.90;;;20.33;;
49123;SDS011;48506;48.202;16.274;2022-12-18T14:01:48;49.17;;;20.38;;
49123;SDS011;48506;48.202;16.274;2022-12-18T14:04:20;44.28;;;18.67;;
49123;SDS011;48506;48.202;16.274;2022-12-18T14:09:57;53.92;;;20.05;;
49123;SDS011;48506;48.202;16.274;2022-12-18T14:12:44;50.60;;;20.50;;
49123;SDS011;48506;48.202;16.274;2022-12-18T14:17:52;47.03;;;20.02;;
49123;SDS011;48506;48.202;16.274;2022-12-18T14:20:31;41.65;;;17.95;;
49123;SDS011;48506;48.202;16.274;2022-12-18T14:22:59;46.35;;;19.92;;
49123;SDS011;48506;48.202;16.274;2022-12-18T14:25:29;44.38;;;20.88;;
49123;SDS011;48506;48.202;16.274;2022-12-18T14:28:04;51.13;;;20.08;;
49123;SDS011;48506;48.202;16.274;2022-12-18T14:30:42;48.13;;;19.58;;
49123;SDS011;48506;48.202;16.274;2022-12-18T14:33:10;44.17;;;20.08;;
49123;SDS011;48506;48.202;16.274;2022-12-18T14:36:19;40.88;;;19.02;;
49123;SDS011;48506;48.202;16.274;2022-12-18T14:38:41;53.92;;;20.00;;
49123;SDS011;48506;48.202;16.274;2022-12-18T14:41:11;42.20;;;18.92;;
49123;SDS011;48506;48.202;16.274;2022-12-18T14:43:39;53.42;;;20.60;;
49123;SDS011;48506;48.202;16.274;2022-12-18T14:48:52;47.35;;;21.13;;
49123;SDS011;48506;48.202;16.274;2022-12-18T14:51:25;51.45;;;20.73;;
49123;SDS011;48506;48.202;16.274;2022-12-18T14:53:57;61.20;;;24.38;;
49123;SDS011;48506;48.202;16.274;2022-12-18T14:56:28;56.03;;;23.05;;
49123;SDS011;48506;48.202;16.274;2022-12-18T14:58:56;62.97;;;28.23;;
49123;SDS011;48506;48.202;16.274;2022-12-18T15:06:31;98.47;;;47.25;;
49123;SDS011;48506;48.202;16.274;2022-12-18T15:09:02;73.90;;;34.40;;
49123;SDS011;48506;48.202;16.274;2022-12-18T15:17:21;56.38;;;28.63;;
49123;SDS011;48506;48.202;16.274;2022-12-18T15:22:28;58.05;;;23.90;;
49123;SDS011;48506;48.202;16.274;2022-12-18T15:24:58;56.75;;;24.27;;
49123;SDS011;48506;48.202;16.274;2022-12-18T15:27:31;62.17;;;25.65;;
49123;SDS011;48506;48.202;16.274;2022-12-18T15:32:43;66.60;;;22.98;;
49123;SDS011;48506;48.202;16.274;2022-12-18T15:37:42;53.65;;;22.38;;
49123;SDS011;48506;48.202;16.274;2022-12-18T15:40:20;70.68;;;28.58;;
49123;SDS011;48506;48.202;16.274;2022-12-18T15:42:55;94.65;;;36.75;;
49123;SDS011;48506;48.202;16.274;2022-12-18T15:45:40;86.30;;;37.75;;
49123;SDS011;48506;48.202;16.274;2022-12-18T15:48:40;147.10;;;52.42;;
49123;SDS011;48506;48.202;16.274;2022-12-18T15:51:00;132.18;;;51.03;;
49123;SDS011;48506;48.202;16.274;2022-12-18T15:53:29;91.25;;;36.17;;
49123;SDS011;48506;48.202;16.274;2022-12-18T15:55:58;91.05;;;39.85;;
49123;SDS011;48506;48.202;16.274;2022-12-18T15:58:43;68.60;;;29.67;;
49123;SDS011;48506;48.202;16.274;2022-12-18T16:01:10;61.95;;;25.35;;
49123;SDS011;48506;48.202;16.274;2022-12-18T16:03:38;73.65;;;25.42;;
49123;SDS011;48506;48.202;16.274;2022-12-18T16:06:05;55.35;;;25.17;;
49123;SDS011;48506;48.202;16.274;2022-12-18T16:08:32;61.97;;;24.10;;
49123;SDS011;48506;48.202;16.274;2022-12-18T16:10:58;65.85;;;24.63;;
49123;SDS011;48506;48.202;16.274;2022-12-18T16:13:25;66.03;;;24.10;;
49123;SDS011;48506;48.202;16.274;2022-12-18T16:15:51;65.55;;;24.45;;
49123;SDS011;48506;48.202;16.274;2022-12-18T16:18:17;70.25;;;26.65;;
49123;SDS011;48506;48.202;16.274;2022-12-18T16:20:44;56.55;;;23.73;;
49123;SDS011;48506;48.202;16.274;2022-12-18T16:23:12;60.60;;;26.52;;
49123;SDS011;48506;48.202;16.274;2022-12-18T16:25:38;55.92;;;23.20;;
49123;SDS011;48506;48.202;16.274;2022-12-18T16:28:04;63.63;;;24.70;;
49123;SDS011;48506;48.202;16.274;2022-12-18T16:30:31;52.40;;;20.38;;
49123;SDS011;48506;48.202;16.274;2022-12-18T16:32:59;51.83;;;19.15;;
49123;SDS011;48506;48.202;16.274;2022-12-18T16:35:26;53.53;;;22.40;;
49123;SDS011;48506;48.202;16.274;2022-12-18T16:37:52;52.13;;;22.25;;
49123;SDS011;48506;48.202;16.274;2022-12-18T16:40:18;47.70;;;19.52;;
49123;SDS011;48506;48.202;16.274;2022-12-18T16:42:45;51.60;;;20.65;;
49123;SDS011;48506;48.202;16.274;2022-12-18T16:45:13;39.90;;;17.10;;
49123;SDS011;48506;48.202;16.274;2022-12-18T16:47:42;47.22;;;18.17;;
49123;SDS011;48506;48.202;16.274;2022-12-18T16:50:09;48.42;;;18.48;;
49123;SDS011;48506;48.202;16.274;2022-12-18T16:52:37;67.65;;;25.08;;
49123;SDS011;48506;48.202;16.274;2022-12-18T16:55:04;61.45;;;26.13;;
49123;SDS011;48506;48.202;16.274;2022-12-18T16:57:31;58.28;;;25.65;;
49123;SDS011;48506;48.202;16.274;2022-12-18T16:59:58;57.30;;;23.55;;
49123;SDS011;48506;48.202;16.274;2022-12-18T17:02:25;49.72;;;20.63;;